sensor_id;sensor_type;location;lat;lon;timestamp;temperature;humidity
45383;DHT22;42455;51.660;5.824;2022-10-16T00:03:23;14.9;98.0
45383;DHT22;42455;51.660;5.824;2022-10-16T00:08:29;14.9;98.0
45383;DHT22;42455;51.660;5.824;2022-10-16T00:13:37;14.9;98.5
45383;DHT22;42455;51.660;5.824;2022-10-16T00:18:41;14.9;98.5
45383;DHT22;42455;51.660;5.824;2022-10-16T00:23:50;14.9;98.5
45383;DHT22;42455;51.660;5.824;2022-10-16T00:28:53;15.0;98.5
45383;DHT22;42455;51.660;5.824;2022-10-16T00:34:00;14.9;98.5
45383;DHT22;42455;51.660;5.824;2022-10-16T00:39:06;15.0;98.5
45383;DHT22;42455;51.660;5.824;2022-10-16T00:44:45;15.0;98.5
45383;DHT22;42455;51.660;5.824;2022-10-16T00:49:20;15.0;98.5
45383;DHT22;42455;51.660;5.824;2022-10-16T00:54:27;14.9;98.5
45383;DHT22;42455;51.660;5.824;2022-10-16T00:59:33;15.0;98.5
45383;DHT22;42455;51.660;5.824;2022-10-16T01:04:40;14.9;98.5
45383;DHT22;42455;51.660;5.824;2022-10-16T01:10:06;14.9;98.5
45383;DHT22;42455;51.660;5.824;2022-10-16T01:14:54;14.9;98.5
45383;DHT22;42455;51.660;5.824;2022-10-16T01:20:03;14.9;98.5
45383;DHT22;42455;51.660;5.824;2022-10-16T01:25:05;15.0;98.5
45383;DHT22;42455;51.660;5.824;2022-10-16T01:30:11;15.0;98.5
45383;DHT22;42455;51.660;5.824;2022-10-16T01:35:20;15.0;98.5
45383;DHT22;42455;51.660;5.824;2022-10-16T01:40:20;15.0;98.5
45383;DHT22;42455;51.660;5.824;2022-10-16T01:45:26;15.0;98.5
45383;DHT22;42455;51.660;5.824;2022-10-16T01:50:32;15.0;98.5
45383;DHT22;42455;51.660;5.824;2022-10-16T01:55:39;15.0;98.5
45383;DHT22;42455;51.660;5.824;2022-10-16T02:00:45;15.0;98.5
45383;DHT22;42455;51.660;5.824;2022-10-16T02:05:52;15.1;98.5
45383;DHT22;42455;51.660;5.824;2022-10-16T02:10:57;15.1;98.5
45383;DHT22;42455;51.660;5.824;2022-10-16T02:16:02;15.2;98.5
45383;DHT22;42455;51.660;5.824;2022-10-16T02:21:13;15.2;98.5
45383;DHT22;42455;51.660;5.824;2022-10-16T02:26:18;15.2;98.5
45383;DHT22;42455;51.660;5.824;2022-10-16T02:31:24;15.3;98.5
45383;DHT22;42455;51.660;5.824;2022-10-16T02:36:27;15.3;98.5
45383;DHT22;42455;51.660;5.824;2022-10-16T02:41:33;15.3;98.5
45383;DHT22;42455;51.660;5.824;2022-10-16T02:46:39;15.3;98.5
45383;DHT22;42455;51.660;5.824;2022-10-16T02:51:45;15.3;98.5
45383;DHT22;42455;51.660;5.824;2022-10-16T02:56:52;15.3;98.5
45383;DHT22;42455;51.660;5.824;2022-10-16T03:01:58;15.3;98.5
45383;DHT22;42455;51.660;5.824;2022-10-16T03:07:04;15.2;98.5
45383;DHT22;42455;51.660;5.824;2022-10-16T03:12:10;15.2;98.5
45383;DHT22;42455;51.660;5.824;2022-10-16T03:17:17;15.1;98.5
45383;DHT22;42455;51.660;5.824;2022-10-16T03:22:23;15.1;98.5
45383;DHT22;42455;51.660;5.824;2022-10-16T03:27:29;15.0;98.5
45383;DHT22;42455;51.660;5.824;2022-10-16T03:32:34;15.0;98.5
45383;DHT22;42455;51.660;5.824;2022-10-16T03:37:40;15.0;98.5
45383;DHT22;42455;51.660;5.824;2022-10-16T03:42:46;15.0;98.5
45383;DHT22;42455;51.660;5.824;2022-10-16T03:47:52;14.9;98.5
45383;DHT22;42455;51.660;5.824;2022-10-16T03:52:58;14.9;98.5
45383;DHT22;42455;51.660;5.824;2022-10-16T03:58:04;14.9;98.5
45383;DHT22;42455;51.660;5.824;2022-10-16T04:03:11;14.9;98.5
45383;DHT22;42455;51.660;5.824;2022-10-16T04:08:17;14.9;98.5
45383;DHT22;42455;51.660;5.824;2022-10-16T04:13:23;14.8;98.5
45383;DHT22;42455;51.660;5.824;2022-10-16T04:18:29;14.8;98.5
45383;DHT22;42455;51.660;5.824;2022-10-16T04:23:35;14.8;98.5
45383;DHT22;42455;51.660;5.824;2022-10-16T04:28:42;14.8;98.5
45383;DHT22;42455;51.660;5.824;2022-10-16T04:33:48;14.8;98.5
45383;DHT22;42455;51.660;5.824;2022-10-16T04:38:54;14.8;98.5
45383;DHT22;42455;51.660;5.824;2022-10-16T04:44:00;14.8;98.5
45383;DHT22;42455;51.660;5.824;2022-10-16T04:49:06;14.8;98.5
45383;DHT22;42455;51.660;5.824;2022-10-16T04:54:13;14.8;98.5
45383;DHT22;42455;51.660;5.824;2022-10-16T04:59:20;14.8;98.5
45383;DHT22;42455;51.660;5.824;2022-10-16T05:04:25;14.8;98.5
45383;DHT22;42455;51.660;5.824;2022-10-16T05:09:31;14.8;98.5
45383;DHT22;42455;51.660;5.824;2022-10-16T05:14:37;14.8;98.5
45383;DHT22;42455;51.660;5.824;2022-10-16T05:19:44;14.8;98.5
45383;DHT22;42455;51.660;5.824;2022-10-16T05:24:50;14.8;98.5
45383;DHT22;42455;51.660;5.824;2022-10-16T05:29:55;14.8;98.5
45383;DHT22;42455;51.660;5.824;2022-10-16T05:35:02;14.8;98.5
45383;DHT22;42455;51.660;5.824;2022-10-16T05:40:08;14.8;98.5
45383;DHT22;42455;51.660;5.824;2022-10-16T05:45:13;14.7;98.5
45383;DHT22;42455;51.660;5.824;2022-10-16T05:50:19;14.7;98.5
45383;DHT22;42455;51.660;5.824;2022-10-16T05:55:25;14.7;98.5
45383;DHT22;42455;51.660;5.824;2022-10-16T06:00:31;14.7;98.5
45383;DHT22;42455;51.660;5.824;2022-10-16T06:05:38;14.7;98.5
45383;DHT22;42455;51.660;5.824;2022-10-16T06:10:44;14.7;98.5
45383;DHT22;42455;51.660;5.824;2022-10-16T06:15:50;14.7;98.5
45383;DHT22;42455;51.660;5.824;2022-10-16T06:20:57;14.7;98.5
45383;DHT22;42455;51.660;5.824;2022-10-16T06:26:04;14.7;98.5
45383;DHT22;42455;51.660;5.824;2022-10-16T06:31:10;14.6;98.5
45383;DHT22;42455;51.660;5.824;2022-10-16T06:36:17;14.7;98.5
45383;DHT22;42455;51.660;5.824;2022-10-16T06:41:22;14.6;98.5
45383;DHT22;42455;51.660;5.824;2022-10-16T06:46:27;14.6;98.5
45383;DHT22;42455;51.660;5.824;2022-10-16T06:51:34;14.6;98.5
45383;DHT22;42455;51.660;5.824;2022-10-16T06:56:40;14.6;98.5
45383;DHT22;42455;51.660;5.824;2022-10-16T07:01:46;14.6;98.5
45383;DHT22;42455;51.660;5.824;2022-10-16T07:06:52;14.7;98.5
45383;DHT22;42455;51.660;5.824;2022-10-16T07:11:58;14.7;98.5
45383;DHT22;42455;51.660;5.824;2022-10-16T07:17:05;14.8;98.5
45383;DHT22;42455;51.660;5.824;2022-10-16T07:22:11;14.9;98.5
45383;DHT22;42455;51.660;5.824;2022-10-16T07:27:16;15.0;98.5
45383;DHT22;42455;51.660;5.824;2022-10-16T07:32:22;15.0;98.5
45383;DHT22;42455;51.660;5.824;2022-10-16T07:37:28;15.1;98.5
45383;DHT22;42455;51.660;5.824;2022-10-16T07:42:35;15.2;98.5
45383;DHT22;42455;51.660;5.824;2022-10-16T07:47:41;15.3;98.5
45383;DHT22;42455;51.660;5.824;2022-10-16T07:52:47;15.4;98.5
45383;DHT22;42455;51.660;5.824;2022-10-16T07:57:54;15.5;98.5
45383;DHT22;42455;51.660;5.824;2022-10-16T08:03:00;15.6;98.5
45383;DHT22;42455;51.660;5.824;2022-10-16T08:08:06;15.7;98.5
45383;DHT22;42455;51.660;5.824;2022-10-16T08:18:18;15.9;98.5
45383;DHT22;42455;51.660;5.824;2022-10-16T08:23:25;16.0;98.5
45383;DHT22;42455;51.660;5.824;2022-10-16T08:28:31;16.1;98.5
45383;DHT22;42455;51.660;5.824;2022-10-16T08:33:37;16.3;98.5
45383;DHT22;42455;51.660;5.824;2022-10-16T08:38:43;16.4;98.5
45383;DHT22;42455;51.660;5.824;2022-10-16T08:44:38;16.5;98.5
45383;DHT22;42455;51.660;5.824;2022-10-16T08:48:57;16.7;98.5
45383;DHT22;42455;51.660;5.824;2022-10-16T08:54:02;16.8;98.5
45383;DHT22;42455;51.660;5.824;2022-10-16T08:59:11;16.9;98.5
45383;DHT22;42455;51.660;5.824;2022-10-16T09:04:53;17.1;98.0
45383;DHT22;42455;51.660;5.824;2022-10-16T09:09:46;17.3;98.0
45383;DHT22;42455;51.660;5.824;2022-10-16T09:14:47;17.4;98.0
45383;DHT22;42455;51.660;5.824;2022-10-16T09:19:33;17.6;97.5
45383;DHT22;42455;51.660;5.824;2022-10-16T09:24:37;17.8;97.0
45383;DHT22;42455;51.660;5.824;2022-10-16T09:29:42;18.0;97.0
45383;DHT22;42455;51.660;5.824;2022-10-16T09:34:51;18.1;96.0
45383;DHT22;42455;51.660;5.824;2022-10-16T09:39:55;18.2;96.0
45383;DHT22;42455;51.660;5.824;2022-10-16T09:45:01;18.3;96.0
45383;DHT22;42455;51.660;5.824;2022-10-16T09:50:20;18.4;95.5
45383;DHT22;42455;51.660;5.824;2022-10-16T09:55:18;18.5;95.0
45383;DHT22;42455;51.660;5.824;2022-10-16T10:00:21;18.6;94.5
45383;DHT22;42455;51.660;5.824;2022-10-16T10:05:29;18.8;94.5
45383;DHT22;42455;51.660;5.824;2022-10-16T10:10:41;19.0;94.0
45383;DHT22;42455;51.660;5.824;2022-10-16T10:15:41;19.1;94.0
45383;DHT22;42455;51.660;5.824;2022-10-16T10:20:44;19.3;93.5
45383;DHT22;42455;51.660;5.824;2022-10-16T10:26:15;19.4;92.5
45383;DHT22;42455;51.660;5.824;2022-10-16T10:31:01;19.4;92.5
45383;DHT22;42455;51.660;5.824;2022-10-16T10:36:28;19.5;92.0
45383;DHT22;42455;51.660;5.824;2022-10-16T10:41:17;19.6;91.5
45383;DHT22;42455;51.660;5.824;2022-10-16T10:46:41;19.7;91.5
45383;DHT22;42455;51.660;5.824;2022-10-16T10:51:32;19.7;90.5
45383;DHT22;42455;51.660;5.824;2022-10-16T10:56:48;19.7;90.5
45383;DHT22;42455;51.660;5.824;2022-10-16T11:01:53;19.7;90.0
45383;DHT22;42455;51.660;5.824;2022-10-16T11:06:43;19.8;90.0
45383;DHT22;42455;51.660;5.824;2022-10-16T11:11:54;19.9;90.0
45383;DHT22;42455;51.660;5.824;2022-10-16T11:16:58;20.0;89.5
45383;DHT22;42455;51.660;5.824;2022-10-16T11:27:10;20.2;88.5
45383;DHT22;42455;51.660;5.824;2022-10-16T11:32:23;20.4;88.0
45383;DHT22;42455;51.660;5.824;2022-10-16T11:37:23;20.5;87.0
45383;DHT22;42455;51.660;5.824;2022-10-16T11:42:27;20.6;86.5
45383;DHT22;42455;51.660;5.824;2022-10-16T11:47:36;20.6;85.5
45383;DHT22;42455;51.660;5.824;2022-10-16T11:52:39;20.5;85.0
45383;DHT22;42455;51.660;5.824;2022-10-16T11:57:54;20.4;84.5
45383;DHT22;42455;51.660;5.824;2022-10-16T12:02:58;20.3;84.5
45383;DHT22;42455;51.660;5.824;2022-10-16T12:08:11;20.2;84.5
45383;DHT22;42455;51.660;5.824;2022-10-16T12:12:59;20.2;84.5
45383;DHT22;42455;51.660;5.824;2022-10-16T12:18:21;20.1;84.5
45383;DHT22;42455;51.660;5.824;2022-10-16T12:23:20;20.1;84.5
45383;DHT22;42455;51.660;5.824;2022-10-16T12:28:26;20.1;84.0
45383;DHT22;42455;51.660;5.824;2022-10-16T12:33:29;20.2;84.5
45383;DHT22;42455;51.660;5.824;2022-10-16T12:38:38;20.2;85.0
45383;DHT22;42455;51.660;5.824;2022-10-16T12:43:47;20.2;85.0
45383;DHT22;42455;51.660;5.824;2022-10-16T12:48:44;20.2;85.0
45383;DHT22;42455;51.660;5.824;2022-10-16T12:53:58;20.4;85.0
45383;DHT22;42455;51.660;5.824;2022-10-16T12:59:32;20.5;84.5
45383;DHT22;42455;51.660;5.824;2022-10-16T13:05:08;20.5;84.0
45383;DHT22;42455;51.660;5.824;2022-10-16T13:15:58;20.8;84.0
45383;DHT22;42455;51.660;5.824;2022-10-16T13:20:53;21.0;83.5
45383;DHT22;42455;51.660;5.824;2022-10-16T13:25:19;21.0;83.0
45383;DHT22;42455;51.660;5.824;2022-10-16T13:29:33;21.1;83.0
45383;DHT22;42455;51.660;5.824;2022-10-16T13:39:43;21.0;82.0
45383;DHT22;42455;51.660;5.824;2022-10-16T13:44:51;21.0;82.0
45383;DHT22;42455;51.660;5.824;2022-10-16T13:50:11;20.9;82.5
45383;DHT22;42455;51.660;5.824;2022-10-16T13:55:02;20.9;82.5
45383;DHT22;42455;51.660;5.824;2022-10-16T14:00:20;20.9;82.5
45383;DHT22;42455;51.660;5.824;2022-10-16T14:05:15;20.8;82.5
45383;DHT22;42455;51.660;5.824;2022-10-16T14:10:29;20.8;82.5
45383;DHT22;42455;51.660;5.824;2022-10-16T14:15:29;20.8;82.5
45383;DHT22;42455;51.660;5.824;2022-10-16T14:20:33;20.8;83.0
45383;DHT22;42455;51.660;5.824;2022-10-16T14:25:39;20.8;83.0
45383;DHT22;42455;51.660;5.824;2022-10-16T14:30:55;20.8;83.0
45383;DHT22;42455;51.660;5.824;2022-10-16T14:36:05;20.8;83.0
45383;DHT22;42455;51.660;5.824;2022-10-16T14:40:59;20.8;83.0
45383;DHT22;42455;51.660;5.824;2022-10-16T14:46:07;20.8;83.0
45383;DHT22;42455;51.660;5.824;2022-10-16T14:51:13;20.7;83.0
45383;DHT22;42455;51.660;5.824;2022-10-16T14:56:20;20.7;83.0
45383;DHT22;42455;51.660;5.824;2022-10-16T15:01:23;20.7;83.5
45383;DHT22;42455;51.660;5.824;2022-10-16T15:06:29;20.6;83.5
45383;DHT22;42455;51.660;5.824;2022-10-16T15:11:36;20.6;83.5
45383;DHT22;42455;51.660;5.824;2022-10-16T15:16:41;20.6;83.5
45383;DHT22;42455;51.660;5.824;2022-10-16T15:21:47;20.6;83.5
45383;DHT22;42455;51.660;5.824;2022-10-16T15:26:52;20.6;83.5
45383;DHT22;42455;51.660;5.824;2022-10-16T15:31:58;20.6;83.5
45383;DHT22;42455;51.660;5.824;2022-10-16T15:37:03;20.5;84.0
45383;DHT22;42455;51.660;5.824;2022-10-16T15:42:10;20.4;84.0
45383;DHT22;42455;51.660;5.824;2022-10-16T15:47:16;20.3;84.5
45383;DHT22;42455;51.660;5.824;2022-10-16T15:52:22;20.3;84.5
45383;DHT22;42455;51.660;5.824;2022-10-16T15:57:28;20.2;85.0
45383;DHT22;42455;51.660;5.824;2022-10-16T16:02:34;20.1;85.0
45383;DHT22;42455;51.660;5.824;2022-10-16T16:07:41;20.0;85.5
45383;DHT22;42455;51.660;5.824;2022-10-16T16:12:47;20.0;86.0
45383;DHT22;42455;51.660;5.824;2022-10-16T16:17:53;19.9;86.0
45383;DHT22;42455;51.660;5.824;2022-10-16T16:22:59;19.8;86.5
45383;DHT22;42455;51.660;5.824;2022-10-16T16:28:05;19.7;87.0
45383;DHT22;42455;51.660;5.824;2022-10-16T16:33:12;19.6;87.0
45383;DHT22;42455;51.660;5.824;2022-10-16T16:38:18;19.5;87.5
45383;DHT22;42455;51.660;5.824;2022-10-16T16:43:25;19.3;88.0
45383;DHT22;42455;51.660;5.824;2022-10-16T16:48:31;19.2;88.0
45383;DHT22;42455;51.660;5.824;2022-10-16T16:53:37;19.2;88.5
45383;DHT22;42455;51.660;5.824;2022-10-16T16:58:45;19.0;88.5
45383;DHT22;42455;51.660;5.824;2022-10-16T17:03:52;18.9;89.5
45383;DHT22;42455;51.660;5.824;2022-10-16T17:08:56;18.9;89.5
45383;DHT22;42455;51.660;5.824;2022-10-16T17:14:02;18.7;89.5
45383;DHT22;42455;51.660;5.824;2022-10-16T17:19:11;18.6;90.0
45383;DHT22;42455;51.660;5.824;2022-10-16T17:24:13;18.6;90.0
45383;DHT22;42455;51.660;5.824;2022-10-16T17:29:19;18.5;90.5
45383;DHT22;42455;51.660;5.824;2022-10-16T17:34:25;18.4;90.5
45383;DHT22;42455;51.660;5.824;2022-10-16T17:39:32;18.4;90.5
45383;DHT22;42455;51.660;5.824;2022-10-16T17:44:38;18.3;91.0
45383;DHT22;42455;51.660;5.824;2022-10-16T17:49:44;18.2;91.0
45383;DHT22;42455;51.660;5.824;2022-10-16T17:54:50;18.2;91.0
45383;DHT22;42455;51.660;5.824;2022-10-16T17:59:56;18.1;91.0
45383;DHT22;42455;51.660;5.824;2022-10-16T18:05:03;18.1;91.5
45383;DHT22;42455;51.660;5.824;2022-10-16T18:10:09;18.0;91.5
45383;DHT22;42455;51.660;5.824;2022-10-16T18:15:15;18.0;91.5
45383;DHT22;42455;51.660;5.824;2022-10-16T18:20:21;18.0;91.5
45383;DHT22;42455;51.660;5.824;2022-10-16T18:25:27;17.9;91.5
45383;DHT22;42455;51.660;5.824;2022-10-16T18:30:33;17.9;92.0
45383;DHT22;42455;51.660;5.824;2022-10-16T18:35:40;17.9;92.0
45383;DHT22;42455;51.660;5.824;2022-10-16T18:40:46;17.8;92.0
45383;DHT22;42455;51.660;5.824;2022-10-16T18:46:00;17.8;92.0
45383;DHT22;42455;51.660;5.824;2022-10-16T18:51:05;17.7;92.5
45383;DHT22;42455;51.660;5.824;2022-10-16T18:56:05;17.7;93.0
45383;DHT22;42455;51.660;5.824;2022-10-16T19:01:12;17.7;93.0
45383;DHT22;42455;51.660;5.824;2022-10-16T19:06:17;17.6;93.5
45383;DHT22;42455;51.660;5.824;2022-10-16T19:11:25;17.6;93.5
45383;DHT22;42455;51.660;5.824;2022-10-16T19:16:33;17.6;93.5
45383;DHT22;42455;51.660;5.824;2022-10-16T19:21:37;17.5;94.0
45383;DHT22;42455;51.660;5.824;2022-10-16T19:26:40;17.5;94.0
45383;DHT22;42455;51.660;5.824;2022-10-16T19:31:46;17.4;94.0
45383;DHT22;42455;51.660;5.824;2022-10-16T19:36:52;17.3;94.5
45383;DHT22;42455;51.660;5.824;2022-10-16T19:41:58;17.3;94.5
45383;DHT22;42455;51.660;5.824;2022-10-16T19:47:05;17.2;95.0
45383;DHT22;42455;51.660;5.824;2022-10-16T19:52:11;17.2;95.0
45383;DHT22;42455;51.660;5.824;2022-10-16T19:57:17;17.2;95.0
45383;DHT22;42455;51.660;5.824;2022-10-16T20:02:23;17.2;95.5
45383;DHT22;42455;51.660;5.824;2022-10-16T20:07:30;17.1;95.5
45383;DHT22;42455;51.660;5.824;2022-10-16T20:12:36;17.1;95.5
45383;DHT22;42455;51.660;5.824;2022-10-16T20:17:42;17.1;96.0
45383;DHT22;42455;51.660;5.824;2022-10-16T20:22:48;17.0;96.0
45383;DHT22;42455;51.660;5.824;2022-10-16T20:27:55;17.0;96.0
45383;DHT22;42455;51.660;5.824;2022-10-16T20:33:01;17.0;96.0
45383;DHT22;42455;51.660;5.824;2022-10-16T20:38:07;17.0;96.0
45383;DHT22;42455;51.660;5.824;2022-10-16T20:43:15;17.0;96.5
45383;DHT22;42455;51.660;5.824;2022-10-16T20:48:19;16.9;96.5
45383;DHT22;42455;51.660;5.824;2022-10-16T20:53:26;16.9;96.5
45383;DHT22;42455;51.660;5.824;2022-10-16T20:58:32;16.9;96.5
45383;DHT22;42455;51.660;5.824;2022-10-16T21:03:38;16.9;96.5
45383;DHT22;42455;51.660;5.824;2022-10-16T21:08:44;16.9;96.5
45383;DHT22;42455;51.660;5.824;2022-10-16T21:13:51;16.8;97.0
45383;DHT22;42455;51.660;5.824;2022-10-16T21:18:56;16.8;97.0
45383;DHT22;42455;51.660;5.824;2022-10-16T21:24:03;16.7;97.0
45383;DHT22;42455;51.660;5.824;2022-10-16T21:29:07;16.7;97.0
45383;DHT22;42455;51.660;5.824;2022-10-16T21:34:13;16.7;97.0
45383;DHT22;42455;51.660;5.824;2022-10-16T21:39:20;16.6;97.0
45383;DHT22;42455;51.660;5.824;2022-10-16T21:44:25;16.5;97.0
45383;DHT22;42455;51.660;5.824;2022-10-16T21:49:32;16.5;97.0
45383;DHT22;42455;51.660;5.824;2022-10-16T21:54:38;16.4;97.0
45383;DHT22;42455;51.660;5.824;2022-10-16T21:59:44;16.4;97.0
45383;DHT22;42455;51.660;5.824;2022-10-16T22:04:50;16.3;97.0
45383;DHT22;42455;51.660;5.824;2022-10-16T22:09:56;16.3;97.0
45383;DHT22;42455;51.660;5.824;2022-10-16T22:15:03;16.2;97.0
45383;DHT22;42455;51.660;5.824;2022-10-16T22:20:09;16.2;97.0
45383;DHT22;42455;51.660;5.824;2022-10-16T22:25:15;16.2;97.5
45383;DHT22;42455;51.660;5.824;2022-10-16T22:30:21;16.1;97.5
45383;DHT22;42455;51.660;5.824;2022-10-16T22:35:28;16.1;97.5
45383;DHT22;42455;51.660;5.824;2022-10-16T22:40:35;16.0;97.5
45383;DHT22;42455;51.660;5.824;2022-10-16T22:45:40;15.9;97.5
45383;DHT22;42455;51.660;5.824;2022-10-16T22:50:46;15.9;98.0
45383;DHT22;42455;51.660;5.824;2022-10-16T22:55:53;15.9;98.0
45383;DHT22;42455;51.660;5.824;2022-10-16T23:00:59;15.9;98.0
45383;DHT22;42455;51.660;5.824;2022-10-16T23:06:05;15.9;98.5
45383;DHT22;42455;51.660;5.824;2022-10-16T23:11:12;16.0;98.5
45383;DHT22;42455;51.660;5.824;2022-10-16T23:16:18;16.0;98.5
45383;DHT22;42455;51.660;5.824;2022-10-16T23:21:23;16.0;98.5
45383;DHT22;42455;51.660;5.824;2022-10-16T23:26:29;16.0;98.5
45383;DHT22;42455;51.660;5.824;2022-10-16T23:31:35;16.0;98.5
45383;DHT22;42455;51.660;5.824;2022-10-16T23:36:41;16.0;98.5
45383;DHT22;42455;51.660;5.824;2022-10-16T23:41:47;16.0;98.5
45383;DHT22;42455;51.660;5.824;2022-10-16T23:46:54;16.0;98.5
45383;DHT22;42455;51.660;5.824;2022-10-16T23:52:00;16.0;98.5
45383;DHT22;42455;51.660;5.824;2022-10-16T23:57:06;16.0;98.5
